Pagrindinis puslapis
METAR-TAF:

METAR-TAF

Oro uostai :

Konija, Turkija

platuma: 37-58N, ilguma: 032-33E, Aukštis: 1032 m

Dabartinis oras

Ataskaita buvo paskelbta 40 minutes, ne 07:50 UTC
Vėjas 8 kt iš Pietų, svyruoja nuo Pietų/Pietryčių ir Pietvakarių
Temperatūra 5°C
Drėgmė 75%
Slėgis 1018 hPa
Matomumas: 9000 m
Išsisklaidę debesys ne aukštis 1000 ft
Su prošvaistėmis ne aukštis 2000 ft

METAR: LTAN 240750Z 19008KT 160V220 9000 SCT010 BKN020 05/01 Q1018 NOSIG

Laikas: 11:30 (08:30 UTC)

Prognozė

Ataskaita buvo paskelbta 3 valandos ir 50 minutes, ne 04:40 UTC
Prognozė galioja nuo 24 metu 06 UTC su 24 metu 15 UTC
Vėjas 2 kt nuo kintamojo kryptimis
Matomumas: 4000 m
Išsisklaidę debesys ne aukštis 2000 ft
Su prošvaistėmis ne aukštis 9000 ft
rūkana
Laikinai
nuo 24 metu 06 UTC su 24 metu 07 UTC
Matomumas: 1200 m
Rūkas lopais
Tapsmas
nuo 24 metu 07 UTC su 24 metu 09 UTC
Matomumas 10 km arba daugiau

TAF: LTAN 240440Z 2406/2415 VRB02KT 4000 BR SCT020 BKN090 TEMPO 2406/2407 1200 BCFG BECMG 2407/2409 9999 NSW

Orai ataskaitas ir orų prognozės (METAR, TAF).

turimą stotys yra geltonos ir raudonos taškus žemėlapyje.

Perkelti pele per norėdami pamatyti stoties vardą.

Tada spustelėkite, norėdami matyti oro stebėjimo ir prognozės.

Norėdami pakeisti žemėlapį: spustelėkite ant žalios mygtukų su juodo kryžiaus žemyn,; žalią mygtuką su brūkšneliu, jei norite nutolinti; arba žalių rodyklių gretimoms žemėlapius.


METAR-TAF: